sensor_id;sensor_type;location;lat;lon;timestamp;noise_LAeq;noise_LA_min;noise_LA_max;noise_LA01;noise_LA95
52872;Laerm;40124;52.198;9.902;2024-03-17T00:00:14;52.32;35.36;68.95;;
52872;Laerm;40124;52.198;9.902;2024-03-17T00:02:42;56.85;31.68;77.09;;
52872;Laerm;40124;52.198;9.902;2024-03-17T00:05:08;42.32;35.04;66.42;;
52872;Laerm;40124;52.198;9.902;2024-03-17T00:07:34;63.63;39.21;82.80;;
52872;Laerm;40124;52.198;9.902;2024-03-17T00:10:08;62.55;39.58;78.60;;
52872;Laerm;40124;52.198;9.902;2024-03-17T00:12:35;59.76;33.90;78.82;;
52872;Laerm;40124;52.198;9.902;2024-03-17T00:15:04;63.49;35.36;84.65;;
52872;Laerm;40124;52.198;9.902;2024-03-17T00:17:31;60.44;35.36;78.93;;
52872;Laerm;40124;52.198;9.902;2024-03-17T00:19:58;63.09;35.04;80.15;;
52872;Laerm;40124;52.198;9.902;2024-03-17T00:22:26;62.82;36.45;80.76;;
52872;Laerm;40124;52.198;9.902;2024-03-17T00:24:52;58.97;37.70;77.91;;
52872;Laerm;40124;52.198;9.902;2024-03-17T00:27:21;62.98;36.69;80.58;;
52872;Laerm;40124;52.198;9.902;2024-03-17T00:29:47;38.45;32.35;41.53;;
52872;Laerm;40124;52.198;9.902;2024-03-17T00:32:15;57.84;34.31;78.20;;
52872;Laerm;40124;52.198;9.902;2024-03-17T00:34:45;38.35;32.93;44.27;;
52872;Laerm;40124;52.198;9.902;2024-03-17T00:37:11;61.89;39.08;81.82;;
52872;Laerm;40124;52.198;9.902;2024-03-17T00:39:36;58.86;39.92;79.60;;
52872;Laerm;40124;52.198;9.902;2024-03-17T00:42:02;57.17;36.69;76.58;;
52872;Laerm;40124;52.198;9.902;2024-03-17T00:44:27;46.09;35.04;67.19;;
52872;Laerm;40124;52.198;9.902;2024-03-17T00:46:53;63.22;35.36;80.24;;
52872;Laerm;40124;52.198;9.902;2024-03-17T00:49:19;60.08;32.93;81.01;;
52872;Laerm;40124;52.198;9.902;2024-03-17T00:51:45;57.56;34.69;77.32;;
52872;Laerm;40124;52.198;9.902;2024-03-17T00:54:13;61.24;33.90;81.32;;
52872;Laerm;40124;52.198;9.902;2024-03-17T00:56:38;38.66;32.93;51.30;;
52872;Laerm;40124;52.198;9.902;2024-03-17T00:59:04;59.29;34.34;78.73;;
52872;Laerm;40124;52.198;9.902;2024-03-17T01:01:29;58.01;34.31;76.34;;
52872;Laerm;40124;52.198;9.902;2024-03-17T01:03:58;41.92;38.81;43.77;;
52872;Laerm;40124;52.198;9.902;2024-03-17T01:06:24;59.21;39.21;78.74;;
52872;Laerm;40124;52.198;9.902;2024-03-17T01:08:49;61.08;36.45;78.62;;
52872;Laerm;40124;52.198;9.902;2024-03-17T01:11:17;60.24;35.66;76.24;;
52872;Laerm;40124;52.198;9.902;2024-03-17T01:13:46;59.37;36.20;78.12;;
52872;Laerm;40124;52.198;9.902;2024-03-17T01:16:13;59.43;36.20;79.93;;
52872;Laerm;40124;52.198;9.902;2024-03-17T01:18:38;61.17;35.94;79.42;;
52872;Laerm;40124;52.198;9.902;2024-03-17T01:21:05;54.32;34.31;73.98;;
52872;Laerm;40124;52.198;9.902;2024-03-17T01:23:31;38.83;32.35;41.68;;
52872;Laerm;40124;52.198;9.902;2024-03-17T01:25:58;58.79;35.04;76.09;;
52872;Laerm;40124;52.198;9.902;2024-03-17T01:28:24;56.48;35.04;75.26;;
52872;Laerm;40124;52.198;9.902;2024-03-17T01:30:49;59.54;34.31;79.38;;
52872;Laerm;40124;52.198;9.902;2024-03-17T01:33:15;55.29;38.95;76.24;;
52872;Laerm;40124;52.198;9.902;2024-03-17T01:35:44;64.30;36.20;86.65;;
52872;Laerm;40124;52.198;9.902;2024-03-17T01:38:10;62.27;35.66;80.33;;
52872;Laerm;40124;52.198;9.902;2024-03-17T01:40:36;61.25;34.69;81.12;;
52872;Laerm;40124;52.198;9.902;2024-03-17T01:43:04;41.84;35.04;48.77;;
52872;Laerm;40124;52.198;9.902;2024-03-17T01:45:31;40.10;35.36;50.27;;
52872;Laerm;40124;52.198;9.902;2024-03-17T01:48:15;61.63;34.31;82.40;;
52872;Laerm;40124;52.198;9.902;2024-03-17T01:50:44;56.96;34.69;77.68;;
52872;Laerm;40124;52.198;9.902;2024-03-17T01:53:13;56.53;34.69;76.71;;
52872;Laerm;40124;52.198;9.902;2024-03-17T01:55:42;39.72;34.69;42.47;;
52872;Laerm;40124;52.198;9.902;2024-03-17T01:58:08;40.53;36.69;44.07;;
52872;Laerm;40124;52.198;9.902;2024-03-17T02:00:38;57.67;37.88;78.62;;
52872;Laerm;40124;52.198;9.902;2024-03-17T02:03:07;58.91;39.92;78.76;;
52872;Laerm;40124;52.198;9.902;2024-03-17T02:05:36;41.02;37.32;45.04;;
52872;Laerm;40124;52.198;9.902;2024-03-17T02:08:05;61.71;36.91;80.64;;
52872;Laerm;40124;52.198;9.902;2024-03-17T02:10:34;59.23;37.32;78.38;;
52872;Laerm;40124;52.198;9.902;2024-03-17T02:13:00;58.69;35.94;80.07;;
52872;Laerm;40124;52.198;9.902;2024-03-17T02:15:26;39.07;33.44;42.35;;
52872;Laerm;40124;52.198;9.902;2024-03-17T02:17:52;61.97;34.69;79.29;;
52872;Laerm;40124;52.198;9.902;2024-03-17T02:20:18;39.01;35.04;42.59;;
52872;Laerm;40124;52.198;9.902;2024-03-17T02:22:44;39.52;35.04;42.29;;
52872;Laerm;40124;52.198;9.902;2024-03-17T02:25:10;39.65;34.69;44.07;;
52872;Laerm;40124;52.198;9.902;2024-03-17T02:27:36;41.24;34.69;43.86;;
52872;Laerm;40124;52.198;9.902;2024-03-17T02:30:02;60.85;39.70;81.16;;
52872;Laerm;40124;52.198;9.902;2024-03-17T02:32:27;40.93;35.94;46.50;;
52872;Laerm;40124;52.198;9.902;2024-03-17T02:34:53;61.83;37.12;79.76;;
52872;Laerm;40124;52.198;9.902;2024-03-17T02:37:20;40.54;35.04;50.29;;
52872;Laerm;40124;52.198;9.902;2024-03-17T02:39:45;59.64;35.66;80.36;;
52872;Laerm;40124;52.198;9.902;2024-03-17T02:42:11;39.80;35.94;43.24;;
52872;Laerm;40124;52.198;9.902;2024-03-17T02:44:37;56.31;34.31;75.71;;
52872;Laerm;40124;52.198;9.902;2024-03-17T02:47:03;39.44;34.69;41.89;;
52872;Laerm;40124;52.198;9.902;2024-03-17T02:49:35;41.20;35.66;60.47;;
52872;Laerm;40124;52.198;9.902;2024-03-17T02:52:15;39.73;35.66;44.80;;
52872;Laerm;40124;52.198;9.902;2024-03-17T02:54:43;41.95;37.32;44.11;;
52872;Laerm;40124;52.198;9.902;2024-03-17T02:57:09;57.07;39.92;77.14;;
52872;Laerm;40124;52.198;9.902;2024-03-17T02:59:35;39.51;34.31;55.12;;
52872;Laerm;40124;52.198;9.902;2024-03-17T03:02:00;39.55;33.90;47.46;;
52872;Laerm;40124;52.198;9.902;2024-03-17T03:04:26;39.81;35.66;45.60;;
52872;Laerm;40124;52.198;9.902;2024-03-17T03:06:51;40.42;33.90;51.91;;
52872;Laerm;40124;52.198;9.902;2024-03-17T03:09:16;40.17;35.36;50.63;;
52872;Laerm;40124;52.198;9.902;2024-03-17T03:11:50;41.88;37.32;49.33;;
52872;Laerm;40124;52.198;9.902;2024-03-17T03:14:15;62.26;37.70;80.80;;
52872;Laerm;40124;52.198;9.902;2024-03-17T03:16:40;40.20;36.45;45.33;;
52872;Laerm;40124;52.198;9.902;2024-03-17T03:19:05;40.54;36.91;48.70;;
52872;Laerm;40124;52.198;9.902;2024-03-17T03:21:31;41.55;37.12;44.23;;
52872;Laerm;40124;52.198;9.902;2024-03-17T03:23:56;60.69;40.33;78.92;;
52872;Laerm;40124;52.198;9.902;2024-03-17T03:26:21;41.95;38.21;48.66;;
52872;Laerm;40124;52.198;9.902;2024-03-17T03:28:48;61.57;38.81;78.79;;
52872;Laerm;40124;52.198;9.902;2024-03-17T03:31:14;41.09;38.05;46.97;;
52872;Laerm;40124;52.198;9.902;2024-03-17T03:33:40;53.76;36.69;74.06;;
52872;Laerm;40124;52.198;9.902;2024-03-17T03:36:12;39.81;35.86;43.04;;
52872;Laerm;40124;52.198;9.902;2024-03-17T03:38:38;58.88;36.20;79.09;;
52872;Laerm;40124;52.198;9.902;2024-03-17T03:41:09;39.76;35.04;42.93;;
52872;Laerm;40124;52.198;9.902;2024-03-17T03:43:35;55.44;36.91;74.61;;
52872;Laerm;40124;52.198;9.902;2024-03-17T03:46:04;63.67;38.37;82.08;;
52872;Laerm;40124;52.198;9.902;2024-03-17T03:48:30;56.12;40.33;74.61;;
52872;Laerm;40124;52.198;9.902;2024-03-17T03:53:33;58.76;36.20;78.65;;
52872;Laerm;40124;52.198;9.902;2024-03-17T03:55:59;41.25;37.12;47.55;;
52872;Laerm;40124;52.198;9.902;2024-03-17T03:58:27;61.09;36.91;81.70;;
52872;Laerm;40124;52.198;9.902;2024-03-17T04:00:54;61.44;38.67;79.67;;
52872;Laerm;40124;52.198;9.902;2024-03-17T04:03:20;54.88;40.08;73.94;;
52872;Laerm;40124;52.198;9.902;2024-03-17T04:05:46;56.76;40.53;77.70;;
52872;Laerm;40124;52.198;9.902;2024-03-17T04:08:12;62.31;40.62;81.04;;
52872;Laerm;40124;52.198;9.902;2024-03-17T04:10:38;42.46;40.03;45.48;;
52872;Laerm;40124;52.198;9.902;2024-03-17T04:13:03;61.14;39.92;79.81;;
52872;Laerm;40124;52.198;9.902;2024-03-17T04:15:35;42.73;38.67;45.33;;
52872;Laerm;40124;52.198;9.902;2024-03-17T04:18:01;42.83;40.03;46.92;;
52872;Laerm;40124;52.198;9.902;2024-03-17T04:20:27;42.39;39.81;43.94;;
52872;Laerm;40124;52.198;9.902;2024-03-17T04:22:53;59.30;40.13;79.80;;
52872;Laerm;40124;52.198;9.902;2024-03-17T04:25:18;61.00;40.33;79.93;;
52872;Laerm;40124;52.198;9.902;2024-03-17T04:27:45;57.73;38.05;78.62;;
52872;Laerm;40124;52.198;9.902;2024-03-17T04:30:17;58.19;37.88;78.49;;
52872;Laerm;40124;52.198;9.902;2024-03-17T04:32:43;57.98;36.91;78.55;;
52872;Laerm;40124;52.198;9.902;2024-03-17T04:35:09;57.66;38.47;76.83;;
52872;Laerm;40124;52.198;9.902;2024-03-17T04:37:34;68.62;39.92;87.53;;
52872;Laerm;40124;52.198;9.902;2024-03-17T04:40:04;57.55;39.08;77.08;;
52872;Laerm;40124;52.198;9.902;2024-03-17T04:42:29;61.75;38.21;80.59;;
52872;Laerm;40124;52.198;9.902;2024-03-17T04:44:55;61.02;38.67;81.85;;
52872;Laerm;40124;52.198;9.902;2024-03-17T04:47:21;63.12;37.70;79.10;;
52872;Laerm;40124;52.198;9.902;2024-03-17T04:49:46;58.87;37.12;79.51;;
52872;Laerm;40124;52.198;9.902;2024-03-17T04:52:13;64.52;38.95;78.78;;
52872;Laerm;40124;52.198;9.902;2024-03-17T04:54:38;63.23;37.52;81.01;;
52872;Laerm;40124;52.198;9.902;2024-03-17T04:57:06;61.01;36.91;78.48;;
52872;Laerm;40124;52.198;9.902;2024-03-17T04:59:33;57.74;37.52;78.19;;
52872;Laerm;40124;52.198;9.902;2024-03-17T05:01:59;61.75;39.34;78.88;;
52872;Laerm;40124;52.198;9.902;2024-03-17T05:04:24;61.48;39.70;80.94;;
52872;Laerm;40124;52.198;9.902;2024-03-17T05:06:50;42.47;38.21;55.59;;
52872;Laerm;40124;52.198;9.902;2024-03-17T05:09:15;59.61;38.37;76.88;;
52872;Laerm;40124;52.198;9.902;2024-03-17T05:11:41;57.81;37.32;78.53;;
52872;Laerm;40124;52.198;9.902;2024-03-17T05:14:06;59.29;37.88;76.61;;
52872;Laerm;40124;52.198;9.902;2024-03-17T05:16:31;41.23;37.70;45.89;;
52872;Laerm;40124;52.198;9.902;2024-03-17T05:18:57;57.73;37.70;76.76;;
52872;Laerm;40124;52.198;9.902;2024-03-17T05:21:22;55.33;38.67;75.41;;
52872;Laerm;40124;52.198;9.902;2024-03-17T05:23:48;63.62;38.81;82.11;;
52872;Laerm;40124;52.198;9.902;2024-03-17T05:26:14;59.01;40.80;80.17;;
52872;Laerm;40124;52.198;9.902;2024-03-17T05:28:39;60.73;41.06;81.40;;
52872;Laerm;40124;52.198;9.902;2024-03-17T05:31:04;57.76;40.98;78.46;;
52872;Laerm;40124;52.198;9.902;2024-03-17T05:33:29;43.71;41.30;49.88;;
52872;Laerm;40124;52.198;9.902;2024-03-17T05:35:55;67.00;41.30;83.98;;
52872;Laerm;40124;52.198;9.902;2024-03-17T05:38:21;64.14;41.75;80.73;;
52872;Laerm;40124;52.198;9.902;2024-03-17T05:40:59;53.61;40.80;77.11;;
52872;Laerm;40124;52.198;9.902;2024-03-17T05:43:25;62.30;40.80;81.18;;
52872;Laerm;40124;52.198;9.902;2024-03-17T05:45:51;57.51;40.71;78.25;;
52872;Laerm;40124;52.198;9.902;2024-03-17T05:48:16;58.62;40.23;78.33;;
52872;Laerm;40124;52.198;9.902;2024-03-17T05:50:42;66.14;40.53;84.49;;
52872;Laerm;40124;52.198;9.902;2024-03-17T05:53:07;59.11;40.53;78.52;;
52872;Laerm;40124;52.198;9.902;2024-03-17T05:55:34;42.88;39.58;50.02;;
52872;Laerm;40124;52.198;9.902;2024-03-17T05:58:00;61.57;40.62;80.14;;
52872;Laerm;40124;52.198;9.902;2024-03-17T06:00:26;42.91;39.46;55.64;;
52872;Laerm;40124;52.198;9.902;2024-03-17T06:02:52;63.80;40.13;80.96;;
52872;Laerm;40124;52.198;9.902;2024-03-17T06:05:17;64.54;39.81;82.12;;
52872;Laerm;40124;52.198;9.902;2024-03-17T06:07:43;60.46;40.71;78.57;;
52872;Laerm;40124;52.198;9.902;2024-03-17T06:10:09;61.88;39.70;80.11;;
52872;Laerm;40124;52.198;9.902;2024-03-17T06:12:34;62.26;40.23;80.04;;
52872;Laerm;40124;52.198;9.902;2024-03-17T06:15:00;63.30;39.08;79.95;;
52872;Laerm;40124;52.198;9.902;2024-03-17T06:17:27;66.29;41.06;82.01;;
52872;Laerm;40124;52.198;9.902;2024-03-17T06:19:53;63.29;41.53;80.28;;
52872;Laerm;40124;52.198;9.902;2024-03-17T06:22:18;66.11;41.06;80.59;;
52872;Laerm;40124;52.198;9.902;2024-03-17T06:24:44;62.92;39.92;79.59;;
52872;Laerm;40124;52.198;9.902;2024-03-17T06:27:09;62.04;38.67;78.81;;
52872;Laerm;40124;52.198;9.902;2024-03-17T06:29:35;62.38;39.23;78.42;;
52872;Laerm;40124;52.198;9.902;2024-03-17T06:32:01;62.84;39.21;80.00;;
52872;Laerm;40124;52.198;9.902;2024-03-17T06:34:27;59.94;40.23;79.35;;
52872;Laerm;40124;52.198;9.902;2024-03-17T06:36:52;66.17;40.62;81.62;;
52872;Laerm;40124;52.198;9.902;2024-03-17T06:39:18;64.87;41.06;81.93;;
52872;Laerm;40124;52.198;9.902;2024-03-17T06:41:46;64.00;41.22;82.70;;
52872;Laerm;40124;52.198;9.902;2024-03-17T06:44:11;64.41;40.53;82.25;;
52872;Laerm;40124;52.198;9.902;2024-03-17T06:46:37;62.46;40.33;77.72;;
52872;Laerm;40124;52.198;9.902;2024-03-17T06:49:02;56.58;39.34;77.39;;
52872;Laerm;40124;52.198;9.902;2024-03-17T06:51:28;60.12;39.23;78.98;;
52872;Laerm;40124;52.198;9.902;2024-03-17T06:53:54;64.55;39.58;82.25;;
52872;Laerm;40124;52.198;9.902;2024-03-17T06:56:19;57.41;39.70;76.90;;
52872;Laerm;40124;52.198;9.902;2024-03-17T06:58:45;65.31;41.75;80.32;;
52872;Laerm;40124;52.198;9.902;2024-03-17T07:01:11;64.88;42.09;78.19;;
52872;Laerm;40124;52.198;9.902;2024-03-17T07:03:36;46.51;39.81;63.77;;
52872;Laerm;40124;52.198;9.902;2024-03-17T07:06:02;61.43;38.52;79.69;;
52872;Laerm;40124;52.198;9.902;2024-03-17T07:08:28;64.62;40.80;79.11;;
52872;Laerm;40124;52.198;9.902;2024-03-17T07:10:57;59.28;41.30;76.06;;
52872;Laerm;40124;52.198;9.902;2024-03-17T07:13:22;65.67;41.38;81.83;;
52872;Laerm;40124;52.198;9.902;2024-03-17T07:15:47;61.66;40.43;78.95;;
52872;Laerm;40124;52.198;9.902;2024-03-17T07:18:13;66.43;40.71;81.81;;
52872;Laerm;40124;52.198;9.902;2024-03-17T07:20:38;59.84;40.71;79.63;;
52872;Laerm;40124;52.198;9.902;2024-03-17T07:23:04;67.55;41.89;83.00;;
52872;Laerm;40124;52.198;9.902;2024-03-17T07:25:29;66.60;42.65;81.39;;
52872;Laerm;40124;52.198;9.902;2024-03-17T07:27:54;63.28;40.62;78.89;;
52872;Laerm;40124;52.198;9.902;2024-03-17T07:30:19;68.11;42.16;81.82;;
52872;Laerm;40124;52.198;9.902;2024-03-17T07:32:45;66.81;41.94;82.36;;
52872;Laerm;40124;52.198;9.902;2024-03-17T07:35:10;63.89;41.46;78.27;;
52872;Laerm;40124;52.198;9.902;2024-03-17T07:37:35;61.61;40.45;77.56;;
52872;Laerm;40124;52.198;9.902;2024-03-17T07:40:00;63.26;40.27;80.05;;
52872;Laerm;40124;52.198;9.902;2024-03-17T07:42:26;64.44;39.46;80.36;;
52872;Laerm;40124;52.198;9.902;2024-03-17T07:44:51;68.92;44.54;83.81;;
52872;Laerm;40124;52.198;9.902;2024-03-17T07:47:16;68.14;44.39;83.07;;
52872;Laerm;40124;52.198;9.902;2024-03-17T07:49:41;69.13;41.96;87.34;;
52872;Laerm;40124;52.198;9.902;2024-03-17T07:52:06;67.55;39.46;81.85;;
52872;Laerm;40124;52.198;9.902;2024-03-17T07:54:31;66.05;39.46;80.89;;
52872;Laerm;40124;52.198;9.902;2024-03-17T07:56:57;69.06;39.70;84.83;;
52872;Laerm;40124;52.198;9.902;2024-03-17T07:59:22;68.45;44.15;82.56;;
52872;Laerm;40124;52.198;9.902;2024-03-17T08:01:48;68.67;44.07;79.96;;
52872;Laerm;40124;52.198;9.902;2024-03-17T08:04:14;69.70;41.96;87.22;;
52872;Laerm;40124;52.198;9.902;2024-03-17T08:06:39;65.95;42.09;80.71;;
52872;Laerm;40124;52.198;9.902;2024-03-17T08:09:08;61.94;37.52;79.45;;
52872;Laerm;40124;52.198;9.902;2024-03-17T08:11:34;63.94;36.20;78.82;;
52872;Laerm;40124;52.198;9.902;2024-03-17T08:14:00;65.98;39.58;81.99;;
52872;Laerm;40124;52.198;9.902;2024-03-17T08:16:27;70.17;41.61;83.10;;
52872;Laerm;40124;52.198;9.902;2024-03-17T08:18:53;64.93;36.91;81.04;;
52872;Laerm;40124;52.198;9.902;2024-03-17T08:21:18;64.96;40.98;79.70;;
52872;Laerm;40124;52.198;9.902;2024-03-17T08:23:44;64.52;36.69;82.09;;
52872;Laerm;40124;52.198;9.902;2024-03-17T08:26:12;67.80;39.58;84.54;;
52872;Laerm;40124;52.198;9.902;2024-03-17T08:28:37;64.54;37.32;79.70;;
52872;Laerm;40124;52.198;9.902;2024-03-17T08:31:03;64.76;37.70;79.48;;
52872;Laerm;40124;52.198;9.902;2024-03-17T08:33:29;69.29;42.71;80.87;;
52872;Laerm;40124;52.198;9.902;2024-03-17T08:38:32;69.22;41.96;82.45;;
52872;Laerm;40124;52.198;9.902;2024-03-17T08:41:02;68.76;44.03;80.23;;
52872;Laerm;40124;52.198;9.902;2024-03-17T08:43:29;69.40;41.14;82.24;;
52872;Laerm;40124;52.198;9.902;2024-03-17T08:46:01;68.04;43.19;83.86;;
52872;Laerm;40124;52.198;9.902;2024-03-17T08:48:34;66.64;38.05;80.57;;
52872;Laerm;40124;52.198;9.902;2024-03-17T08:51:01;66.04;41.14;79.40;;
52872;Laerm;40124;52.198;9.902;2024-03-17T08:53:27;67.38;41.68;80.05;;
52872;Laerm;40124;52.198;9.902;2024-03-17T08:55:52;67.19;42.24;81.21;;
52872;Laerm;40124;52.198;9.902;2024-03-17T08:58:18;69.70;41.46;84.00;;
52872;Laerm;40124;52.198;9.902;2024-03-17T09:00:44;66.57;37.70;80.57;;
52872;Laerm;40124;52.198;9.902;2024-03-17T09:03:10;68.11;44.07;82.20;;
52872;Laerm;40124;52.198;9.902;2024-03-17T09:05:40;65.43;42.29;79.08;;
52872;Laerm;40124;52.198;9.902;2024-03-17T09:08:06;66.62;40.98;79.53;;
52872;Laerm;40124;52.198;9.902;2024-03-17T09:10:40;67.95;42.59;81.56;;
52872;Laerm;40124;52.198;9.902;2024-03-17T09:13:06;68.02;43.54;82.87;;
52872;Laerm;40124;52.198;9.902;2024-03-17T09:15:32;68.38;38.95;82.09;;
52872;Laerm;40124;52.198;9.902;2024-03-17T09:17:57;65.97;37.88;79.47;;
52872;Laerm;40124;52.198;9.902;2024-03-17T09:20:23;65.73;38.05;78.75;;
52872;Laerm;40124;52.198;9.902;2024-03-17T09:22:52;66.82;40.13;81.05;;
52872;Laerm;40124;52.198;9.902;2024-03-17T09:25:22;66.29;41.22;82.11;;
52872;Laerm;40124;52.198;9.902;2024-03-17T09:27:48;69.84;42.29;83.02;;
52872;Laerm;40124;52.198;9.902;2024-03-17T09:30:14;65.66;38.52;80.79;;
52872;Laerm;40124;52.198;9.902;2024-03-17T09:32:40;69.42;41.82;82.30;;
52872;Laerm;40124;52.198;9.902;2024-03-17T09:35:08;67.54;40.43;81.81;;
52872;Laerm;40124;52.198;9.902;2024-03-17T09:37:34;66.87;40.43;79.61;;
52872;Laerm;40124;52.198;9.902;2024-03-17T09:40:00;67.58;42.16;80.19;;
52872;Laerm;40124;52.198;9.902;2024-03-17T09:42:26;67.78;42.35;82.25;;
52872;Laerm;40124;52.198;9.902;2024-03-17T09:44:55;62.34;37.12;79.10;;
52872;Laerm;40124;52.198;9.902;2024-03-17T09:47:22;67.38;35.94;81.84;;
52872;Laerm;40124;52.198;9.902;2024-03-17T09:49:51;68.28;40.53;84.60;;
52872;Laerm;40124;52.198;9.902;2024-03-17T09:52:21;68.11;42.29;80.29;;
52872;Laerm;40124;52.198;9.902;2024-03-17T09:55:09;69.26;41.06;80.38;;
52872;Laerm;40124;52.198;9.902;2024-03-17T09:57:33;68.27;42.65;81.76;;
52872;Laerm;40124;52.198;9.902;2024-03-17T10:00:01;63.53;40.62;78.74;;
52872;Laerm;40124;52.198;9.902;2024-03-17T10:02:29;68.56;43.44;80.64;;
52872;Laerm;40124;52.198;9.902;2024-03-17T10:04:54;66.51;41.30;80.51;;
52872;Laerm;40124;52.198;9.902;2024-03-17T10:07:27;69.35;45.14;79.89;;
52872;Laerm;40124;52.198;9.902;2024-03-17T10:10:11;66.44;42.93;78.61;;
52872;Laerm;40124;52.198;9.902;2024-03-17T10:12:41;68.44;43.49;81.62;;
52872;Laerm;40124;52.198;9.902;2024-03-17T10:15:07;69.72;50.97;81.69;;
52872;Laerm;40124;52.198;9.902;2024-03-17T10:17:35;69.02;43.49;84.57;;
52872;Laerm;40124;52.198;9.902;2024-03-17T10:20:11;66.87;42.47;79.54;;
52872;Laerm;40124;52.198;9.902;2024-03-17T10:22:37;67.92;41.61;78.70;;
52872;Laerm;40124;52.198;9.902;2024-03-17T10:25:02;66.38;40.89;79.20;;
52872;Laerm;40124;52.198;9.902;2024-03-17T10:27:28;67.37;44.90;79.25;;
52872;Laerm;40124;52.198;9.902;2024-03-17T10:29:53;67.28;41.89;79.29;;
52872;Laerm;40124;52.198;9.902;2024-03-17T10:32:18;67.80;41.14;80.46;;
52872;Laerm;40124;52.198;9.902;2024-03-17T10:34:44;67.92;43.90;81.65;;
52872;Laerm;40124;52.198;9.902;2024-03-17T10:39:36;70.38;47.16;84.42;;
52872;Laerm;40124;52.198;9.902;2024-03-17T10:42:03;68.49;41.53;81.73;;
52872;Laerm;40124;52.198;9.902;2024-03-17T10:44:29;69.68;43.34;83.94;;
52872;Laerm;40124;52.198;9.902;2024-03-17T10:46:54;67.17;38.95;79.28;;
52872;Laerm;40124;52.198;9.902;2024-03-17T10:49:21;64.91;42.03;79.18;;
52872;Laerm;40124;52.198;9.902;2024-03-17T10:51:49;67.56;43.54;80.69;;
52872;Laerm;40124;52.198;9.902;2024-03-17T10:54:21;67.23;41.68;80.30;;
52872;Laerm;40124;52.198;9.902;2024-03-17T10:56:48;67.39;40.43;82.23;;
52872;Laerm;40124;52.198;9.902;2024-03-17T10:59:14;69.15;42.82;81.22;;
52872;Laerm;40124;52.198;9.902;2024-03-17T11:01:43;66.99;40.89;79.97;;
52872;Laerm;40124;52.198;9.902;2024-03-17T11:04:10;69.62;42.22;81.83;;
52872;Laerm;40124;52.198;9.902;2024-03-17T11:06:37;70.21;42.47;86.44;;
52872;Laerm;40124;52.198;9.902;2024-03-17T11:09:03;67.79;40.80;79.90;;
52872;Laerm;40124;52.198;9.902;2024-03-17T11:11:35;68.94;41.61;82.92;;
52872;Laerm;40124;52.198;9.902;2024-03-17T11:14:16;69.49;44.80;82.16;;
52872;Laerm;40124;52.198;9.902;2024-03-17T11:16:44;68.48;41.14;82.58;;
52872;Laerm;40124;52.198;9.902;2024-03-17T11:19:13;70.26;44.76;85.15;;
52872;Laerm;40124;52.198;9.902;2024-03-17T11:21:40;69.50;42.47;82.16;;
52872;Laerm;40124;52.198;9.902;2024-03-17T11:24:06;66.33;40.62;81.02;;
52872;Laerm;40124;52.198;9.902;2024-03-17T11:26:43;67.20;41.75;79.97;;
52872;Laerm;40124;52.198;9.902;2024-03-17T11:29:27;73.65;46.84;95.26;;
52872;Laerm;40124;52.198;9.902;2024-03-17T11:31:59;65.63;41.75;79.15;;
52872;Laerm;40124;52.198;9.902;2024-03-17T11:34:35;66.18;43.34;78.51;;
52872;Laerm;40124;52.198;9.902;2024-03-17T11:37:02;65.84;40.71;77.55;;
52872;Laerm;40124;52.198;9.902;2024-03-17T11:40:22;68.51;44.47;81.84;;
52872;Laerm;40124;52.198;9.902;2024-03-17T11:42:28;67.50;42.16;82.90;;
52872;Laerm;40124;52.198;9.902;2024-03-17T11:47:40;69.68;40.89;79.51;;
52872;Laerm;40124;52.198;9.902;2024-03-17T11:50:10;68.46;42.98;81.28;;
52872;Laerm;40124;52.198;9.902;2024-03-17T11:52:38;69.83;41.22;81.43;;
52872;Laerm;40124;52.198;9.902;2024-03-17T11:55:06;67.86;44.39;81.05;;
52872;Laerm;40124;52.198;9.902;2024-03-17T11:57:40;67.51;41.22;84.36;;
52872;Laerm;40124;52.198;9.902;2024-03-17T12:00:15;68.24;41.89;80.57;;
52872;Laerm;40124;52.198;9.902;2024-03-17T12:02:47;69.73;40.62;87.65;;
52872;Laerm;40124;52.198;9.902;2024-03-17T12:05:16;67.29;42.35;80.88;;
52872;Laerm;40124;52.198;9.902;2024-03-17T12:07:42;68.35;44.07;79.62;;
52872;Laerm;40124;52.198;9.902;2024-03-17T12:10:11;67.53;42.41;78.59;;
52872;Laerm;40124;52.198;9.902;2024-03-17T12:12:40;70.59;44.19;85.15;;
52872;Laerm;40124;52.198;9.902;2024-03-17T12:15:16;68.37;44.58;82.27;;
52872;Laerm;40124;52.198;9.902;2024-03-17T12:17:42;69.92;42.71;85.47;;
52872;Laerm;40124;52.198;9.902;2024-03-17T12:20:18;68.90;42.03;80.66;;
52872;Laerm;40124;52.198;9.902;2024-03-17T12:22:44;69.97;43.77;81.77;;
52872;Laerm;40124;52.198;9.902;2024-03-17T12:25:16;67.82;39.08;81.21;;
52872;Laerm;40124;52.198;9.902;2024-03-17T12:27:43;67.15;40.80;81.16;;
52872;Laerm;40124;52.198;9.902;2024-03-17T12:30:09;69.80;43.58;82.15;;
52872;Laerm;40124;52.198;9.902;2024-03-17T12:32:35;69.26;44.97;83.22;;
52872;Laerm;40124;52.198;9.902;2024-03-17T12:35:01;69.88;42.09;83.28;;
52872;Laerm;40124;52.198;9.902;2024-03-17T12:37:28;66.99;41.53;80.86;;
52872;Laerm;40124;52.198;9.902;2024-03-17T12:39:59;70.06;49.49;80.35;;
52872;Laerm;40124;52.198;9.902;2024-03-17T12:42:25;68.94;38.37;82.50;;
52872;Laerm;40124;52.198;9.902;2024-03-17T12:49:50;67.93;40.98;83.92;;
52872;Laerm;40124;52.198;9.902;2024-03-17T12:52:25;69.19;47.68;80.54;;
52872;Laerm;40124;52.198;9.902;2024-03-17T12:55:00;65.37;39.21;81.33;;
52872;Laerm;40124;52.198;9.902;2024-03-17T13:00:45;67.60;43.72;81.76;;
52872;Laerm;40124;52.198;9.902;2024-03-17T13:03:23;70.98;44.07;86.90;;
52872;Laerm;40124;52.198;9.902;2024-03-17T13:05:52;69.17;43.42;81.82;;
52872;Laerm;40124;52.198;9.902;2024-03-17T13:08:17;69.07;42.09;81.06;;
52872;Laerm;40124;52.198;9.902;2024-03-17T13:10:43;69.65;44.65;82.22;;
52872;Laerm;40124;52.198;9.902;2024-03-17T13:13:08;70.35;47.04;83.47;;
52872;Laerm;40124;52.198;9.902;2024-03-17T13:15:34;66.26;41.81;81.52;;
52872;Laerm;40124;52.198;9.902;2024-03-17T13:18:03;70.49;45.51;85.67;;
52872;Laerm;40124;52.198;9.902;2024-03-17T13:20:29;68.40;42.71;81.70;;
52872;Laerm;40124;52.198;9.902;2024-03-17T13:22:54;67.15;42.41;80.90;;
52872;Laerm;40124;52.198;9.902;2024-03-17T13:25:20;68.68;43.90;80.53;;
52872;Laerm;40124;52.198;9.902;2024-03-17T13:27:47;66.45;41.22;79.29;;
52872;Laerm;40124;52.198;9.902;2024-03-17T13:30:13;69.90;44.80;80.86;;
52872;Laerm;40124;52.198;9.902;2024-03-17T13:32:38;72.34;42.65;90.89;;
52872;Laerm;40124;52.198;9.902;2024-03-17T13:35:05;70.22;43.72;81.38;;
52872;Laerm;40124;52.198;9.902;2024-03-17T13:37:30;65.37;41.75;79.86;;
52872;Laerm;40124;52.198;9.902;2024-03-17T13:39:56;68.43;43.09;80.43;;
52872;Laerm;40124;52.198;9.902;2024-03-17T13:42:27;69.02;44.94;82.79;;
52872;Laerm;40124;52.198;9.902;2024-03-17T13:44:53;66.95;41.53;82.50;;
52872;Laerm;40124;52.198;9.902;2024-03-17T13:47:19;67.85;43.29;80.76;;
52872;Laerm;40124;52.198;9.902;2024-03-17T13:49:44;70.55;37.70;86.90;;
52872;Laerm;40124;52.198;9.902;2024-03-17T13:52:10;68.69;45.69;79.98;;
52872;Laerm;40124;52.198;9.902;2024-03-17T13:54:36;71.66;51.64;86.30;;
52872;Laerm;40124;52.198;9.902;2024-03-17T13:57:01;69.32;43.49;80.65;;
52872;Laerm;40124;52.198;9.902;2024-03-17T13:59:27;69.96;43.14;81.12;;
52872;Laerm;40124;52.198;9.902;2024-03-17T14:01:53;69.41;43.72;84.64;;